Royse City, TX (75189)

6:57 PM CDT on March 26, 2017 (GMT -0500)
| | Change Station
Active Advisory: Tornado Watch

Elev -9999 ft 0.00 °N, 0.00 °E | Updated 4 minutes ago

Mostly Cloudy
Mostly Cloudy
°F
Feels Like °F
N
Wind Variable Wind from North
Gusts mph

Today
High -- | Low -- °F
--% Chance of Precip.
Yesterday
High -- | Low -- °F
Precip. -- in
Pressure 29.75 in
Visibility 10.0 miles
Clouds Scattered Clouds 7500 ft
Scattered Clouds 8500 ft
Dew Point Not available.
Humidity Not available.
Rainfall --
Snow Depth Not available.
7:20 AM 7:41 PM
Waning Crescent, 2% visible
METAR KF46 262335Z AUTO 17012G18KT 10SM SCT075 SCT085 26/15 A2975 RMK AO2 T02620152
Pressure 29.75 in
Visibility 10.0 miles
Clouds Scattered Clouds 7500 ft
Scattered Clouds 8500 ft
Dew Point Not available.
Humidity Not available.
Rainfall --
Snow Depth Not available.
7:20 AM 7:41 PM
Waning Crescent, 2% visible
METAR KF46 262335Z AUTO 17012G18KT 10SM SCT075 SCT085 26/15 A2975 RMK AO2 T02620152

Get Your Daily Forecast Email!

Thanks for signing up!

Be on the lookout for a verification email in your inbox.

You'll start receiving severe weather alerts in your inbox..

×

10-Day Weather Forecast

Almanac

Astronomy

Mar. 26, 2017 Rise Set
Actual Time
Civil Twilight
Nautical Twilight
Astronomical Twilight
Moon
Length of Visible Light
Length of Day
Tomorrow will be .
, % of the Moon is Illuminated

Today's Extremes

State Highs State Lows

Community

WunderPhotos

Upload Photos

1,962,540 photos uploaded!

WunderBlog® & News

Nearby

Air Quality

  Air Quality AQ Index Pollutant
Not available.

Snow Depth

Station Depth Elevation

Earthquake Activity

City Distance Mag. Time & Date
Minimum magnitude displayed is 2.5.

Earthquake Activity

City Distance Mag. Time & Date
Minimum magnitude displayed is 2.5.

Coastal Water Temperatures

Place Temperature

Stations

Nearby Weather Stations

Station Location Temp. Windchill Dew Point Humidity Wind Precip. Elev Updated Type
                   

Watches & Warnings

Tornado Watch
Issued: 6:43 PM CDT Mar. 26, 2017 – National Weather Service

Tornado Watch 86 remains in effect until 1100 PM CDT for the
following locations

TX
. Texas counties included are

Clay Collin Cooke
Dallas Delta Denton
Fannin Grayson Hunt
Jack Lamar Montague
Parker Rockwall Tarrant
wise